createdAt,value
2022-08-30T00:02:12.597Z,55.69
2022-08-30T00:04:53.493Z,55.70
2022-08-30T00:07:33.184Z,55.60
2022-08-30T00:10:10.717Z,54.55
2022-08-30T00:12:48.408Z,56.00
2022-08-30T00:15:36.756Z,56.51
2022-08-30T00:18:20.996Z,57.02
2022-08-30T00:21:05.894Z,55.72
2022-08-30T00:23:43.714Z,55.59
2022-08-30T00:26:37.143Z,56.18
2022-08-30T00:29:15.215Z,56.64
2022-08-30T00:31:57.713Z,56.00
2022-08-30T00:34:42.380Z,55.54
2022-08-30T00:37:20.547Z,56.92
2022-08-30T00:40:02.210Z,56.90
2022-08-30T00:42:41.403Z,55.70
2022-08-30T00:45:17.494Z,55.68
2022-08-30T00:48:14.798Z,56.57
2022-08-30T00:50:57.908Z,56.71
2022-08-30T00:53:40.107Z,56.74
2022-08-30T00:56:16.492Z,57.60
2022-08-30T00:58:58.906Z,57.51
2022-08-30T01:01:42.748Z,57.18
2022-08-30T01:04:20.780Z,56.88
2022-08-30T01:06:59.896Z,56.69
2022-08-30T01:09:42.996Z,56.54
2022-08-30T01:12:18.719Z,56.85
2022-08-30T01:14:59.021Z,56.70
2022-08-30T01:17:38.713Z,56.25
2022-08-30T01:20:24.806Z,56.31
2022-08-30T01:23:01.646Z,56.97
2022-08-30T01:25:35.932Z,58.02
2022-08-30T01:28:14.624Z,58.89
2022-08-30T01:30:52.947Z,57.89
2022-08-30T01:33:26.021Z,57.23
2022-08-30T01:36:16.332Z,56.89
2022-08-30T01:38:55.108Z,56.33
2022-08-30T01:41:39.626Z,56.04
2022-08-30T01:44:16.097Z,55.43
2022-08-30T01:47:05.013Z,55.55
2022-08-30T01:49:35.765Z,56.54
2022-08-30T01:52:11.039Z,55.93
2022-08-30T01:54:55.992Z,55.97
2022-08-30T01:57:33.677Z,55.98
2022-08-30T02:00:04.977Z,57.42
2022-08-30T02:02:47.623Z,57.76
2022-08-30T02:05:26.922Z,57.94
2022-08-30T02:08:02.868Z,58.25
2022-08-30T02:10:56.558Z,56.69
2022-08-30T02:13:30.771Z,55.90
2022-08-30T02:16:05.321Z,56.24
2022-08-30T02:18:43.234Z,56.19
2022-08-30T02:21:22.475Z,56.23
2022-08-30T02:23:55.689Z,56.12
2022-08-30T02:26:28.369Z,58.16
2022-08-30T02:29:00.301Z,56.24
2022-08-30T02:31:36.252Z,55.62
2022-08-30T02:34:07.874Z,56.07
2022-08-30T02:36:45.440Z,56.94
2022-08-30T02:39:19.852Z,58.07
2022-08-30T02:42:00.559Z,58.71
2022-08-30T02:44:36.597Z,58.85
2022-08-30T02:47:13.153Z,59.29
2022-08-30T02:49:42.787Z,59.89
2022-08-30T02:52:27.773Z,58.15
2022-08-30T02:55:00.904Z,59.17
2022-08-30T02:57:43.176Z,60.01
2022-08-30T03:00:18.809Z,58.86
2022-08-30T03:02:56.977Z,59.50
2022-08-30T03:05:33.701Z,59.42
2022-08-30T03:08:14.257Z,58.90
2022-08-30T03:10:46.915Z,58.54
2022-08-30T03:13:25.575Z,57.98
2022-08-30T03:15:54.687Z,57.27
2022-08-30T03:18:37.907Z,57.39
2022-08-30T03:21:18.248Z,57.87
2022-08-30T03:23:50.877Z,59.17
2022-08-30T03:26:28.139Z,59.31
2022-08-30T03:28:58.206Z,59.10
2022-08-30T03:31:31.489Z,59.56
2022-08-30T03:34:14.784Z,60.49
2022-08-30T03:36:54.512Z,60.05
2022-08-30T03:39:24.959Z,59.69
2022-08-30T03:41:58.191Z,60.25
2022-08-30T03:44:33.653Z,59.36
2022-08-30T03:47:07.626Z,59.92
2022-08-30T03:49:47.642Z,59.53
2022-08-30T03:52:20.056Z,59.22
2022-08-30T03:54:55.464Z,59.81
2022-08-30T03:57:34.968Z,59.63
2022-08-30T04:00:14.002Z,59.59
2022-08-30T04:02:47.196Z,60.04
2022-08-30T04:05:28.724Z,59.21
2022-08-30T04:08:07.203Z,59.78
2022-08-30T04:10:44.516Z,60.08
2022-08-30T04:13:23.316Z,60.46
2022-08-30T04:15:54.773Z,60.19
2022-08-30T04:18:28.073Z,59.71
2022-08-30T04:21:00.305Z,59.65
2022-08-30T04:23:38.563Z,59.27
2022-08-30T04:26:06.801Z,58.68
2022-08-30T04:28:38.057Z,59.97
2022-08-30T04:31:17.083Z,59.01
2022-08-30T04:33:54.837Z,61.51
2022-08-30T04:36:26.142Z,59.99
2022-08-30T04:38:57.605Z,60.60
2022-08-30T04:41:28.916Z,60.32
2022-08-30T04:44:03.656Z,60.17
2022-08-30T04:46:44.467Z,59.63
2022-08-30T04:49:24.083Z,58.51
2022-08-30T04:51:55.690Z,59.15
2022-08-30T04:54:28.440Z,58.64
2022-08-30T04:56:56.977Z,58.71
2022-08-30T04:59:28.647Z,58.07
2022-08-30T05:02:00.822Z,58.14
2022-08-30T05:04:35.703Z,58.07
2022-08-30T05:07:06.780Z,57.70
2022-08-30T05:09:40.772Z,58.01
2022-08-30T05:12:11.919Z,58.87
2022-08-30T05:14:42.703Z,58.68
2022-08-30T05:17:17.248Z,58.90
2022-08-30T05:19:49.543Z,57.93
2022-08-30T05:22:23.110Z,58.24
2022-08-30T05:24:56.385Z,57.43
2022-08-30T05:27:23.961Z,58.21
2022-08-30T05:29:52.494Z,57.54
2022-08-30T05:32:21.499Z,58.02
2022-08-30T05:34:51.913Z,57.63
2022-08-30T05:37:20.363Z,56.57
2022-08-30T05:39:51.507Z,56.63
2022-08-30T05:42:21.698Z,56.62
2022-08-30T05:44:53.884Z,56.98
2022-08-30T05:47:22.733Z,56.48
2022-08-30T05:49:50.848Z,56.30
2022-08-30T05:52:19.089Z,55.98
2022-08-30T05:54:54.662Z,55.57
2022-08-30T05:57:23.086Z,55.25
2022-08-30T05:59:51.796Z,54.54
2022-08-30T06:02:19.802Z,54.71
2022-08-30T06:04:48.641Z,54.06
2022-08-30T06:07:18.926Z,53.17
2022-08-30T06:09:49.661Z,51.79
2022-08-30T06:12:17.753Z,50.86
2022-08-30T06:14:45.650Z,49.71
2022-08-30T06:17:14.753Z,48.92
2022-08-30T06:19:42.916Z,48.35
2022-08-30T06:22:11.463Z,47.23
2022-08-30T06:25:01.150Z,46.48
2022-08-30T06:27:31.431Z,44.35
2022-08-30T06:30:15.068Z,44.43
2022-08-30T06:32:53.956Z,44.06
2022-08-30T06:35:30.677Z,44.15
2022-08-30T06:38:00.566Z,43.56
2022-08-30T06:40:29.079Z,43.56
2022-08-30T06:42:59.652Z,42.97
2022-08-30T06:45:27.820Z,43.18
2022-08-30T06:50:27.182Z,41.89
2022-08-30T06:53:07.931Z,41.54
2022-08-30T06:55:37.610Z,42.17
2022-08-30T06:58:06.069Z,41.69
2022-08-30T07:00:34.107Z,41.86
2022-08-30T07:03:02.759Z,41.50
2022-08-30T07:05:31.018Z,40.73
2022-08-30T07:07:59.077Z,40.68
2022-08-30T07:10:27.108Z,40.41
2022-08-30T07:13:04.736Z,39.70
2022-08-30T07:15:34.003Z,39.81
2022-08-30T07:18:30.209Z,39.75
2022-08-30T07:21:17.276Z,39.71
2022-08-30T07:23:53.070Z,39.98
2022-08-30T07:26:26.388Z,38.78
2022-08-30T07:28:55.740Z,38.40
2022-08-30T07:31:24.858Z,38.14
2022-08-30T07:33:53.495Z,37.31
2022-08-30T07:36:22.578Z,36.90
2022-08-30T07:38:51.541Z,36.84
2022-08-30T07:41:30.799Z,36.98
2022-08-30T07:43:59.195Z,36.48
2022-08-30T07:46:28.355Z,36.05
2022-08-30T07:48:56.704Z,36.24
2022-08-30T07:51:26.936Z,36.02
2022-08-30T07:53:56.526Z,35.72
2022-08-30T07:56:25.610Z,35.33
2022-08-30T07:58:53.961Z,35.44
2022-08-30T08:01:22.957Z,34.59
2022-08-30T08:03:51.826Z,34.12
2022-08-30T08:06:21.754Z,34.26
2022-08-30T08:08:50.619Z,34.04
2022-08-30T08:11:23.043Z,33.69
2022-08-30T08:13:54.380Z,33.88
2022-08-30T08:16:25.451Z,33.58
2022-08-30T08:18:54.664Z,33.75
2022-08-30T08:21:23.691Z,33.70
2022-08-30T08:23:52.054Z,34.01
2022-08-30T08:26:20.470Z,33.65
2022-08-30T08:28:49.034Z,33.87
2022-08-30T08:31:24.031Z,34.33
2022-08-30T08:36:33.562Z,34.36
2022-08-30T08:39:03.669Z,34.46
2022-08-30T08:42:04.150Z,34.31
2022-08-30T08:44:55.551Z,34.07
2022-08-30T08:47:26.165Z,33.38
2022-08-30T08:49:58.504Z,33.82
2022-08-30T08:52:53.074Z,33.14
2022-08-30T08:55:22.899Z,32.82
2022-08-30T08:57:52.552Z,33.48
2022-08-30T09:00:21.283Z,33.67
2022-08-30T09:03:04.511Z,34.57
2022-08-30T09:05:36.011Z,34.44
2022-08-30T09:08:10.451Z,33.76
2022-08-30T09:10:50.844Z,33.37
2022-08-30T09:13:31.129Z,33.93
2022-08-30T09:16:00.474Z,33.37
2022-08-30T09:18:50.110Z,33.00
2022-08-30T09:21:25.311Z,32.91
2022-08-30T09:24:02.135Z,32.19
2022-08-30T09:26:37.730Z,31.58
2022-08-30T09:29:06.105Z,32.12
2022-08-30T09:31:49.569Z,32.30
2022-08-30T09:34:20.823Z,32.87
2022-08-30T09:36:52.833Z,33.06
2022-08-30T09:39:30.474Z,32.48
2022-08-30T09:42:22.899Z,33.00
2022-08-30T09:44:51.814Z,32.45
2022-08-30T09:47:26.126Z,32.17
2022-08-30T09:50:08.028Z,32.82
2022-08-30T09:52:55.329Z,32.59
2022-08-30T09:56:00.335Z,32.60
2022-08-30T09:58:42.481Z,33.40
2022-08-30T10:01:37.569Z,32.89
2022-08-30T10:04:20.728Z,32.38
2022-08-30T10:06:55.014Z,32.11
2022-08-30T10:09:38.640Z,31.87
2022-08-30T10:12:17.012Z,31.70
2022-08-30T10:15:05.002Z,32.04
2022-08-30T10:17:47.848Z,31.90
2022-08-30T10:20:27.224Z,32.01
2022-08-30T10:23:02.416Z,32.23
2022-08-30T10:25:38.675Z,32.34
2022-08-30T10:28:37.944Z,32.26
2022-08-30T10:31:13.243Z,32.18
2022-08-30T10:34:02.338Z,32.50
2022-08-30T10:36:41.967Z,32.22
2022-08-30T10:39:15.182Z,32.16
2022-08-30T10:41:49.460Z,32.83
2022-08-30T10:44:34.849Z,31.75
2022-08-30T10:47:27.911Z,32.42
2022-08-30T10:50:07.607Z,32.25
2022-08-30T10:52:48.152Z,32.36
2022-08-30T10:55:16.528Z,32.88
2022-08-30T10:57:46.028Z,32.39
2022-08-30T11:03:44.720Z,33.24
2022-08-30T11:07:09.822Z,31.64
2022-08-30T11:10:18.510Z,31.78
2022-08-30T11:12:59.480Z,30.57
2022-08-30T11:15:34.935Z,30.33
2022-08-30T11:18:06.862Z,30.64
2022-08-30T11:20:47.805Z,31.10
2022-08-30T11:23:24.897Z,30.69
2022-08-30T11:26:02.409Z,30.89
2022-08-30T11:28:37.024Z,31.08
2022-08-30T11:31:11.418Z,31.57
2022-08-30T11:33:57.794Z,31.34
2022-08-30T11:36:38.195Z,31.16
2022-08-30T11:39:49.092Z,30.16
2022-08-30T11:42:24.403Z,29.63
2022-08-30T11:45:26.912Z,29.54
2022-08-30T11:48:04.493Z,28.81
2022-08-30T11:50:39.923Z,29.27
2022-08-30T11:53:18.257Z,29.61
2022-08-30T11:56:14.238Z,29.17
2022-08-30T11:58:45.946Z,29.21
2022-08-30T12:01:54.041Z,29.64
2022-08-30T12:04:46.162Z,29.28
2022-08-30T12:14:09.001Z,27.92
2022-08-30T12:17:14.815Z,28.08
2022-08-30T12:19:49.073Z,27.67
2022-08-30T12:22:19.203Z,27.50
2022-08-30T12:25:01.160Z,27.48
2022-08-30T12:27:33.041Z,27.11
2022-08-30T12:30:23.539Z,26.46
2022-08-30T12:33:42.775Z,26.73
2022-08-30T12:37:05.533Z,27.09
2022-08-30T12:39:53.550Z,27.12
2022-08-30T12:42:28.802Z,27.08
2022-08-30T12:45:12.134Z,28.11
2022-08-30T12:48:00.528Z,27.83
2022-08-30T12:50:40.716Z,27.56
2022-08-30T12:53:21.724Z,27.00
2022-08-30T12:56:11.372Z,26.90
2022-08-30T12:59:22.767Z,26.64
2022-08-30T13:02:42.332Z,26.66
2022-08-30T13:05:47.840Z,26.00
2022-08-30T13:08:39.260Z,25.85
2022-08-30T13:11:13.213Z,25.92
2022-08-30T13:29:54.618Z,23.95
2022-08-30T13:32:25.781Z,23.95
2022-08-30T13:34:54.717Z,24.58
2022-08-30T13:40:15.369Z,24.54
2022-08-30T13:42:45.675Z,25.46
2022-08-30T13:48:11.488Z,25.14
2022-08-30T13:50:41.084Z,26.06
2022-08-30T13:53:10.682Z,25.33
2022-08-30T13:55:48.614Z,25.06
2022-08-30T13:58:36.785Z,25.10
2022-08-30T14:01:29.958Z,24.82
2022-08-30T14:04:17.084Z,25.39
2022-08-30T14:09:41.530Z,24.81
2022-08-30T14:15:30.673Z,24.71
2022-08-30T14:18:03.521Z,24.96
2022-08-30T14:20:40.161Z,24.54
2022-08-30T14:23:18.283Z,24.08
2022-08-30T14:25:51.415Z,23.26
2022-08-30T14:28:19.797Z,24.79
2022-08-30T14:30:52.519Z,25.68
2022-08-30T14:33:24.355Z,24.89
2022-08-30T14:35:53.508Z,24.03
2022-08-30T14:38:32.788Z,25.04
2022-08-30T14:41:07.479Z,25.15
2022-08-30T14:43:41.468Z,24.49
2022-08-30T14:46:15.388Z,24.28
2022-08-30T14:48:57.282Z,24.48
2022-08-30T14:51:29.478Z,24.01
2022-08-30T14:54:05.774Z,24.10
2022-08-30T14:56:42.276Z,24.14
2022-08-30T14:59:21.390Z,24.62
2022-08-30T15:02:03.008Z,24.70
2022-08-30T15:04:34.824Z,25.19
2022-08-30T15:07:16.683Z,25.38
2022-08-30T15:09:50.751Z,25.37
2022-08-30T15:12:26.176Z,25.45
2022-08-30T15:15:10.941Z,25.92
2022-08-30T15:17:39.526Z,26.76
2022-08-30T15:20:16.244Z,26.88
2022-08-30T15:22:46.184Z,27.17
2022-08-30T15:25:17.149Z,27.31
2022-08-30T15:27:50.093Z,27.52
2022-08-30T15:30:26.030Z,27.64
2022-08-30T15:32:57.581Z,28.18
2022-08-30T15:35:31.307Z,28.44
2022-08-30T15:37:59.498Z,28.55
2022-08-30T15:40:33.418Z,28.22
2022-08-30T15:43:05.783Z,28.95
2022-08-30T15:45:36.005Z,29.56
2022-08-30T15:48:04.187Z,29.29
2022-08-30T15:50:35.950Z,29.82
2022-08-30T15:53:07.435Z,29.52
2022-08-30T15:55:37.910Z,29.58
2022-08-30T15:58:09.235Z,29.46
2022-08-30T16:00:42.790Z,29.94
2022-08-30T16:03:12.997Z,30.14
2022-08-30T16:05:46.769Z,30.05
2022-08-30T16:08:14.930Z,30.22
2022-08-30T16:10:47.941Z,30.59
2022-08-30T16:13:21.226Z,30.66
2022-08-30T16:15:49.024Z,30.77
2022-08-30T16:18:17.678Z,31.12
2022-08-30T16:20:46.162Z,30.60
2022-08-30T16:23:13.964Z,30.98
2022-08-30T16:25:41.739Z,30.64
2022-08-30T16:28:10.815Z,30.11
2022-08-30T16:30:38.636Z,30.44
2022-08-30T16:33:07.763Z,30.23
2022-08-30T16:35:36.553Z,30.90
2022-08-30T16:38:04.829Z,30.54
2022-08-30T16:40:33.279Z,30.41
2022-08-30T16:43:04.244Z,30.79
2022-08-30T16:45:37.009Z,30.43
2022-08-30T16:48:05.776Z,30.31
2022-08-30T16:50:37.760Z,30.11
2022-08-30T16:53:07.988Z,29.75
2022-08-30T16:55:37.868Z,29.75
2022-08-30T16:58:09.111Z,29.47
2022-08-30T17:00:39.339Z,29.50
2022-08-30T17:03:09.499Z,29.03
2022-08-30T17:05:38.120Z,29.03
2022-08-30T17:08:05.829Z,29.51
2022-08-30T17:10:34.389Z,29.52
2022-08-30T17:13:03.987Z,29.43
2022-08-30T17:15:33.668Z,29.51
2022-08-30T17:18:01.871Z,29.12
2022-08-30T17:20:31.971Z,29.14
2022-08-30T17:23:02.259Z,29.06
2022-08-30T17:25:33.912Z,29.00
2022-08-30T17:28:03.146Z,29.41
2022-08-30T17:30:31.894Z,29.74
2022-08-30T17:33:00.080Z,29.67
2022-08-30T17:35:30.816Z,29.47
2022-08-30T17:37:58.748Z,29.76
2022-08-30T17:40:27.068Z,29.75
2022-08-30T17:42:56.161Z,29.96
2022-08-30T17:45:24.235Z,29.96
2022-08-30T17:47:52.772Z,30.41
2022-08-30T17:50:21.532Z,30.35
2022-08-30T17:52:51.180Z,30.13
2022-08-30T17:55:19.583Z,30.65
2022-08-30T17:57:48.217Z,30.72
2022-08-30T18:00:20.179Z,30.97
2022-08-30T18:02:49.766Z,31.48
2022-08-30T18:05:17.361Z,31.78
2022-08-30T18:07:53.588Z,32.00
2022-08-30T18:10:28.544Z,32.35
2022-08-30T18:13:03.903Z,32.24
2022-08-30T18:15:33.248Z,33.11
2022-08-30T18:18:02.243Z,33.13
2022-08-30T18:20:33.158Z,33.60
2022-08-30T18:23:02.059Z,33.59
2022-08-30T18:25:30.143Z,34.06
2022-08-30T18:27:59.330Z,34.27
2022-08-30T18:30:33.974Z,34.33
2022-08-30T18:33:06.952Z,34.09
2022-08-30T18:35:35.010Z,33.83
2022-08-30T18:38:04.823Z,33.71
2022-08-30T18:40:32.981Z,34.13
2022-08-30T18:43:07.872Z,34.43
2022-08-30T18:45:38.506Z,35.13
2022-08-30T18:48:06.149Z,35.00
2022-08-30T18:50:34.241Z,34.88
2022-08-30T18:53:03.649Z,34.69
2022-08-30T18:55:32.963Z,35.17
2022-08-30T18:58:01.798Z,36.36
2022-08-30T19:00:33.717Z,36.46
2022-08-30T19:03:03.155Z,36.13
2022-08-30T19:05:35.566Z,35.62
2022-08-30T19:08:04.224Z,35.98
2022-08-30T19:10:34.129Z,35.89
2022-08-30T19:13:04.928Z,35.97
2022-08-30T19:15:37.984Z,35.90
2022-08-30T19:18:16.679Z,35.89
2022-08-30T19:20:47.445Z,36.01
2022-08-30T19:23:18.073Z,36.79
2022-08-30T19:25:47.004Z,36.86
2022-08-30T19:28:21.825Z,36.77
2022-08-30T19:30:54.934Z,36.79
2022-08-30T19:33:23.756Z,37.47
2022-08-30T19:35:55.045Z,37.34
2022-08-30T19:38:26.257Z,37.90
2022-08-30T19:40:59.344Z,37.53
2022-08-30T19:43:30.623Z,37.20
2022-08-30T19:46:00.986Z,37.02
2022-08-30T19:48:32.795Z,38.10
2022-08-30T19:51:08.533Z,38.24
2022-08-30T19:53:37.306Z,37.26
2022-08-30T19:56:06.385Z,37.34
2022-08-30T19:58:35.319Z,37.67
2022-08-30T20:01:11.691Z,37.64
2022-08-30T20:03:49.713Z,37.30
2022-08-30T20:06:20.212Z,37.53
2022-08-30T20:08:48.623Z,37.85
2022-08-30T20:11:20.609Z,38.86
2022-08-30T20:13:49.791Z,39.19
2022-08-30T20:16:19.957Z,39.83
2022-08-30T20:18:52.889Z,40.02
2022-08-30T20:21:24.245Z,40.06
2022-08-30T20:23:55.487Z,40.33
2022-08-30T20:26:31.630Z,39.95
2022-08-30T20:29:06.233Z,39.54
2022-08-30T20:31:37.165Z,38.81
2022-08-30T20:34:07.916Z,38.54
2022-08-30T20:36:36.213Z,38.87
2022-08-30T20:39:09.601Z,38.86
2022-08-30T20:41:38.347Z,38.61
2022-08-30T20:44:11.861Z,38.48
2022-08-30T20:46:46.537Z,38.34
2022-08-30T20:49:14.668Z,38.87
2022-08-30T20:51:44.004Z,39.12
2022-08-30T20:54:12.532Z,38.92
2022-08-30T20:56:41.007Z,39.13
2022-08-30T20:59:10.237Z,40.30
2022-08-30T21:01:39.216Z,40.68
2022-08-30T21:04:09.572Z,40.85
2022-08-30T21:06:39.453Z,40.64
2022-08-30T21:09:08.999Z,40.09
2022-08-30T21:11:39.269Z,40.42
2022-08-30T21:14:13.331Z,40.28
2022-08-30T21:16:41.929Z,42.22
2022-08-30T21:19:10.201Z,41.91
2022-08-30T21:21:38.574Z,41.42
2022-08-30T21:24:10.276Z,41.38
2022-08-30T21:26:40.846Z,40.97
2022-08-30T21:29:09.978Z,41.38
2022-08-30T21:31:38.315Z,40.87
2022-08-30T21:34:07.387Z,41.16
2022-08-30T21:36:46.246Z,41.65
2022-08-30T21:39:24.902Z,41.19
2022-08-30T21:41:57.070Z,42.12
2022-08-30T21:44:26.965Z,41.20
2022-08-30T21:46:55.182Z,42.35
2022-08-30T21:49:23.922Z,42.31
2022-08-30T21:51:53.936Z,42.31
2022-08-30T21:54:23.320Z,42.22
2022-08-30T21:56:53.252Z,41.93
2022-08-30T21:59:22.390Z,41.71
2022-08-30T22:01:50.522Z,42.43
2022-08-30T22:04:25.690Z,43.69
2022-08-30T22:06:54.485Z,43.88
2022-08-30T22:09:24.874Z,44.29
2022-08-30T22:11:58.295Z,44.27
2022-08-30T22:14:33.780Z,44.06
2022-08-30T22:17:08.644Z,43.64
2022-08-30T22:19:41.822Z,44.07
2022-08-30T22:22:14.512Z,43.25
2022-08-30T22:24:50.165Z,44.15
2022-08-30T22:27:22.523Z,43.57
2022-08-30T22:29:53.071Z,44.06
2022-08-30T22:32:24.089Z,44.19
2022-08-30T22:34:59.207Z,44.01
2022-08-30T22:37:30.543Z,44.20
2022-08-30T22:40:06.671Z,45.08
2022-08-30T22:42:37.745Z,45.04
2022-08-30T22:45:10.382Z,45.28
2022-08-30T22:47:40.371Z,45.53
2022-08-30T22:50:10.742Z,44.90
2022-08-30T22:52:41.880Z,45.79
2022-08-30T22:55:12.475Z,45.52
2022-08-30T22:57:45.871Z,45.24
2022-08-30T23:00:20.376Z,45.12
2022-08-30T23:02:54.072Z,45.38
2022-08-30T23:05:25.751Z,46.22
2022-08-30T23:07:56.896Z,46.30
2022-08-30T23:10:30.222Z,46.16
2022-08-30T23:13:02.817Z,47.33
2022-08-30T23:15:32.595Z,47.21
2022-08-30T23:18:06.025Z,47.99
2022-08-30T23:20:38.849Z,49.20
2022-08-30T23:23:08.067Z,48.28
2022-08-30T23:26:05.645Z,48.72
2022-08-30T23:29:00.219Z,49.10
2022-08-30T23:31:55.742Z,47.86
2022-08-30T23:34:46.365Z,49.56
2022-08-30T23:37:36.955Z,49.01
2022-08-30T23:40:26.443Z,48.28
2022-08-30T23:43:21.798Z,48.62
2022-08-30T23:46:10.299Z,48.73
2022-08-30T23:48:59.405Z,48.05
2022-08-30T23:51:48.091Z,48.31
2022-08-30T23:54:38.813Z,48.13
2022-08-30T23:57:26.767Z,47.82
